sensor_id;sensor_type;location;lat;lon;timestamp;P1;durP1;ratioP1;P2;durP2;ratioP2
2762;SDS011;1389;51.490;7.338;2023-06-26T00:00:57;285.13;;;31.45;;
2762;SDS011;1389;51.490;7.338;2023-06-26T00:03:23;286.80;;;30.70;;
2762;SDS011;1389;51.490;7.338;2023-06-26T00:05:49;302.07;;;46.37;;
2762;SDS011;1389;51.490;7.338;2023-06-26T00:08:16;308.30;;;42.92;;
2762;SDS011;1389;51.490;7.338;2023-06-26T00:10:42;392.80;;;127.13;;
2762;SDS011;1389;51.490;7.338;2023-06-26T00:13:08;308.42;;;50.13;;
2762;SDS011;1389;51.490;7.338;2023-06-26T00:15:37;458.98;;;199.88;;
2762;SDS011;1389;51.490;7.338;2023-06-26T00:18:04;1999.90;;;999.90;;
2762;SDS011;1389;51.490;7.338;2023-06-26T00:20:31;337.73;;;91.22;;
2762;SDS011;1389;51.490;7.338;2023-06-26T00:22:59;355.10;;;84.88;;
2762;SDS011;1389;51.490;7.338;2023-06-26T00:25:26;573.13;;;336.70;;
2762;SDS011;1389;51.490;7.338;2023-06-26T00:27:52;277.67;;;30.25;;
2762;SDS011;1389;51.490;7.338;2023-06-26T00:30:18;272.92;;;28.65;;
2762;SDS011;1389;51.490;7.338;2023-06-26T00:32:45;286.03;;;36.90;;
2762;SDS011;1389;51.490;7.338;2023-06-26T00:35:11;277.60;;;32.80;;
2762;SDS011;1389;51.490;7.338;2023-06-26T00:37:37;280.58;;;30.40;;
2762;SDS011;1389;51.490;7.338;2023-06-26T00:40:04;286.70;;;32.67;;
2762;SDS011;1389;51.490;7.338;2023-06-26T00:42:31;286.08;;;31.80;;
2762;SDS011;1389;51.490;7.338;2023-06-26T00:44:57;282.90;;;28.88;;
2762;SDS011;1389;51.490;7.338;2023-06-26T00:47:23;299.00;;;41.93;;
2762;SDS011;1389;51.490;7.338;2023-06-26T00:49:51;286.25;;;29.80;;
2762;SDS011;1389;51.490;7.338;2023-06-26T00:52:17;289.75;;;32.47;;
2762;SDS011;1389;51.490;7.338;2023-06-26T00:54:44;298.20;;;39.65;;
2762;SDS011;1389;51.490;7.338;2023-06-26T00:57:10;289.88;;;30.88;;
2762;SDS011;1389;51.490;7.338;2023-06-26T00:59:36;286.40;;;28.70;;
2762;SDS011;1389;51.490;7.338;2023-06-26T01:02:03;285.80;;;27.63;;
2762;SDS011;1389;51.490;7.338;2023-06-26T01:04:31;289.60;;;28.00;;
2762;SDS011;1389;51.490;7.338;2023-06-26T01:06:58;293.40;;;29.73;;
2762;SDS011;1389;51.490;7.338;2023-06-26T01:09:25;293.67;;;30.38;;
2762;SDS011;1389;51.490;7.338;2023-06-26T01:11:51;292.80;;;29.70;;
2762;SDS011;1389;51.490;7.338;2023-06-26T01:14:18;311.77;;;46.72;;
2762;SDS011;1389;51.490;7.338;2023-06-26T01:16:44;328.15;;;45.67;;
2762;SDS011;1389;51.490;7.338;2023-06-26T01:19:23;336.13;;;60.33;;
2762;SDS011;1389;51.490;7.338;2023-06-26T01:22:02;301.08;;;34.65;;
2762;SDS011;1389;51.490;7.338;2023-06-26T01:24:33;360.15;;;67.55;;
2762;SDS011;1389;51.490;7.338;2023-06-26T01:27:02;337.67;;;71.10;;
2762;SDS011;1389;51.490;7.338;2023-06-26T01:29:30;304.97;;;35.27;;
2762;SDS011;1389;51.490;7.338;2023-06-26T01:31:57;252.18;;;31.35;;
2762;SDS011;1389;51.490;7.338;2023-06-26T01:34:23;370.07;;;107.03;;
2762;SDS011;1389;51.490;7.338;2023-06-26T01:36:50;332.02;;;79.28;;
2762;SDS011;1389;51.490;7.338;2023-06-26T01:39:18;303.63;;;45.67;;
2762;SDS011;1389;51.490;7.338;2023-06-26T01:41:45;291.48;;;29.73;;
2762;SDS011;1389;51.490;7.338;2023-06-26T01:44:31;293.80;;;30.50;;
2762;SDS011;1389;51.490;7.338;2023-06-26T01:47:02;295.70;;;31.40;;
2762;SDS011;1389;51.490;7.338;2023-06-26T01:52:20;302.10;;;34.80;;
2762;SDS011;1389;51.490;7.338;2023-06-26T01:57:16;326.33;;;38.70;;
2762;SDS011;1389;51.490;7.338;2023-06-26T01:59:44;316.58;;;40.95;;
2762;SDS011;1389;51.490;7.338;2023-06-26T02:02:12;311.65;;;36.17;;
2762;SDS011;1389;51.490;7.338;2023-06-26T02:04:39;307.13;;;33.67;;
2762;SDS011;1389;51.490;7.338;2023-06-26T02:07:05;314.50;;;37.73;;
2762;SDS011;1389;51.490;7.338;2023-06-26T02:09:32;316.08;;;36.90;;
2762;SDS011;1389;51.490;7.338;2023-06-26T02:11:58;303.73;;;33.95;;
2762;SDS011;1389;51.490;7.338;2023-06-26T02:14:24;305.27;;;35.05;;
2762;SDS011;1389;51.490;7.338;2023-06-26T02:16:51;306.58;;;35.20;;
2762;SDS011;1389;51.490;7.338;2023-06-26T02:19:19;305.08;;;34.25;;
2762;SDS011;1389;51.490;7.338;2023-06-26T02:21:47;303.00;;;32.33;;
2762;SDS011;1389;51.490;7.338;2023-06-26T02:24:14;305.15;;;32.50;;
2762;SDS011;1389;51.490;7.338;2023-06-26T02:26:51;303.10;;;33.10;;
2762;SDS011;1389;51.490;7.338;2023-06-26T02:29:17;297.92;;;31.00;;
2762;SDS011;1389;51.490;7.338;2023-06-26T02:31:43;296.05;;;32.60;;
2762;SDS011;1389;51.490;7.338;2023-06-26T02:34:10;290.30;;;31.00;;
2762;SDS011;1389;51.490;7.338;2023-06-26T02:36:36;290.30;;;32.17;;
2762;SDS011;1389;51.490;7.338;2023-06-26T02:39:03;287.73;;;31.73;;
2762;SDS011;1389;51.490;7.338;2023-06-26T02:41:29;286.75;;;31.92;;
2762;SDS011;1389;51.490;7.338;2023-06-26T02:43:55;285.30;;;31.75;;
2762;SDS011;1389;51.490;7.338;2023-06-26T02:46:22;283.73;;;32.00;;
2762;SDS011;1389;51.490;7.338;2023-06-26T02:48:48;278.10;;;28.83;;
2762;SDS011;1389;51.490;7.338;2023-06-26T02:51:14;285.13;;;34.20;;
2762;SDS011;1389;51.490;7.338;2023-06-26T02:53:40;284.33;;;32.83;;
2762;SDS011;1389;51.490;7.338;2023-06-26T02:56:07;281.63;;;29.10;;
2762;SDS011;1389;51.490;7.338;2023-06-26T02:58:34;282.40;;;29.38;;
2762;SDS011;1389;51.490;7.338;2023-06-26T03:01:00;288.23;;;34.95;;
2762;SDS011;1389;51.490;7.338;2023-06-26T03:03:26;289.80;;;35.60;;
2762;SDS011;1389;51.490;7.338;2023-06-26T03:05:53;285.73;;;30.40;;
2762;SDS011;1389;51.490;7.338;2023-06-26T03:08:19;288.15;;;32.95;;
2762;SDS011;1389;51.490;7.338;2023-06-26T03:10:45;284.23;;;29.27;;
2762;SDS011;1389;51.490;7.338;2023-06-26T03:13:12;284.70;;;29.80;;
2762;SDS011;1389;51.490;7.338;2023-06-26T03:15:38;287.00;;;30.75;;
2762;SDS011;1389;51.490;7.338;2023-06-26T03:18:04;288.10;;;31.30;;
2762;SDS011;1389;51.490;7.338;2023-06-26T03:20:31;288.65;;;31.05;;
2762;SDS011;1389;51.490;7.338;2023-06-26T03:22:57;290.00;;;31.55;;
2762;SDS011;1389;51.490;7.338;2023-06-26T03:25:23;289.98;;;32.03;;
2762;SDS011;1389;51.490;7.338;2023-06-26T03:27:50;293.90;;;34.70;;
2762;SDS011;1389;51.490;7.338;2023-06-26T03:30:16;288.40;;;32.20;;
2762;SDS011;1389;51.490;7.338;2023-06-26T03:32:42;294.35;;;36.65;;
2762;SDS011;1389;51.490;7.338;2023-06-26T03:35:09;293.23;;;33.95;;
2762;SDS011;1389;51.490;7.338;2023-06-26T03:37:35;290.80;;;32.00;;
2762;SDS011;1389;51.490;7.338;2023-06-26T03:40:01;289.60;;;30.17;;
2762;SDS011;1389;51.490;7.338;2023-06-26T03:42:30;289.50;;;30.20;;
2762;SDS011;1389;51.490;7.338;2023-06-26T03:44:56;288.67;;;29.70;;
2762;SDS011;1389;51.490;7.338;2023-06-26T03:47:22;290.50;;;32.50;;
2762;SDS011;1389;51.490;7.338;2023-06-26T03:49:49;285.40;;;29.80;;
2762;SDS011;1389;51.490;7.338;2023-06-26T03:52:15;284.60;;;29.23;;
2762;SDS011;1389;51.490;7.338;2023-06-26T03:54:41;290.92;;;34.60;;
2762;SDS011;1389;51.490;7.338;2023-06-26T03:57:08;284.00;;;29.13;;
2762;SDS011;1389;51.490;7.338;2023-06-26T03:59:36;285.90;;;30.77;;
2762;SDS011;1389;51.490;7.338;2023-06-26T04:02:02;283.88;;;32.55;;
2762;SDS011;1389;51.490;7.338;2023-06-26T04:04:28;274.57;;;28.70;;
2762;SDS011;1389;51.490;7.338;2023-06-26T04:06:55;270.83;;;28.75;;
2762;SDS011;1389;51.490;7.338;2023-06-26T04:09:22;266.77;;;28.25;;
2762;SDS011;1389;51.490;7.338;2023-06-26T04:11:48;264.50;;;28.30;;
2762;SDS011;1389;51.490;7.338;2023-06-26T04:14:15;263.20;;;30.10;;
2762;SDS011;1389;51.490;7.338;2023-06-26T04:16:41;259.38;;;27.70;;
2762;SDS011;1389;51.490;7.338;2023-06-26T04:19:08;258.13;;;32.50;;
2762;SDS011;1389;51.490;7.338;2023-06-26T04:21:35;249.93;;;25.77;;
2762;SDS011;1389;51.490;7.338;2023-06-26T04:24:02;245.03;;;24.43;;
2762;SDS011;1389;51.490;7.338;2023-06-26T04:26:28;246.88;;;27.00;;
2762;SDS011;1389;51.490;7.338;2023-06-26T04:28:54;246.48;;;28.20;;
2762;SDS011;1389;51.490;7.338;2023-06-26T04:31:21;258.10;;;52.35;;
2762;SDS011;1389;51.490;7.338;2023-06-26T04:33:47;313.40;;;92.03;;
2762;SDS011;1389;51.490;7.338;2023-06-26T04:36:16;240.30;;;28.60;;
2762;SDS011;1389;51.490;7.338;2023-06-26T04:38:43;234.70;;;24.85;;
2762;SDS011;1389;51.490;7.338;2023-06-26T04:41:09;237.98;;;27.98;;
2762;SDS011;1389;51.490;7.338;2023-06-26T04:43:36;236.03;;;25.57;;
2762;SDS011;1389;51.490;7.338;2023-06-26T04:46:02;286.88;;;76.30;;
2762;SDS011;1389;51.490;7.338;2023-06-26T04:48:29;262.73;;;45.88;;
2762;SDS011;1389;51.490;7.338;2023-06-26T04:50:56;249.10;;;44.90;;
2762;SDS011;1389;51.490;7.338;2023-06-26T04:53:24;227.23;;;25.25;;
2762;SDS011;1389;51.490;7.338;2023-06-26T04:55:51;235.45;;;29.00;;
2762;SDS011;1389;51.490;7.338;2023-06-26T04:58:17;303.85;;;94.18;;
2762;SDS011;1389;51.490;7.338;2023-06-26T05:00:44;243.38;;;48.83;;
2762;SDS011;1389;51.490;7.338;2023-06-26T05:03:13;228.43;;;38.80;;
2762;SDS011;1389;51.490;7.338;2023-06-26T05:05:40;213.65;;;24.15;;
2762;SDS011;1389;51.490;7.338;2023-06-26T05:08:13;211.80;;;25.05;;
2762;SDS011;1389;51.490;7.338;2023-06-26T05:10:40;201.27;;;21.55;;
2762;SDS011;1389;51.490;7.338;2023-06-26T05:13:06;192.80;;;19.70;;
2762;SDS011;1389;51.490;7.338;2023-06-26T05:15:33;191.60;;;17.00;;
2762;SDS011;1389;51.490;7.338;2023-06-26T05:17:59;191.73;;;16.95;;
2762;SDS011;1389;51.490;7.338;2023-06-26T05:20:25;192.73;;;17.10;;
2762;SDS011;1389;51.490;7.338;2023-06-26T05:22:57;192.90;;;17.10;;
2762;SDS011;1389;51.490;7.338;2023-06-26T05:25:24;193.10;;;17.10;;
2762;SDS011;1389;51.490;7.338;2023-06-26T05:27:50;192.60;;;17.70;;
2762;SDS011;1389;51.490;7.338;2023-06-26T05:30:17;192.00;;;17.15;;
2762;SDS011;1389;51.490;7.338;2023-06-26T05:32:44;192.07;;;16.92;;
2762;SDS011;1389;51.490;7.338;2023-06-26T05:35:11;195.82;;;20.50;;
2762;SDS011;1389;51.490;7.338;2023-06-26T05:37:37;185.30;;;16.40;;
2762;SDS011;1389;51.490;7.338;2023-06-26T05:40:03;190.90;;;16.60;;
2762;SDS011;1389;51.490;7.338;2023-06-26T05:42:30;254.00;;;26.00;;
2762;SDS011;1389;51.490;7.338;2023-06-26T05:44:57;236.60;;;22.50;;
2762;SDS011;1389;51.490;7.338;2023-06-26T05:47:23;234.38;;;22.20;;
2762;SDS011;1389;51.490;7.338;2023-06-26T05:49:49;231.18;;;21.25;;
2762;SDS011;1389;51.490;7.338;2023-06-26T05:52:16;231.13;;;21.00;;
2762;SDS011;1389;51.490;7.338;2023-06-26T05:54:42;232.00;;;21.30;;
2762;SDS011;1389;51.490;7.338;2023-06-26T05:57:09;232.00;;;21.10;;
2762;SDS011;1389;51.490;7.338;2023-06-26T05:59:36;218.05;;;20.83;;
2762;SDS011;1389;51.490;7.338;2023-06-26T06:02:02;212.50;;;19.10;;
2762;SDS011;1389;51.490;7.338;2023-06-26T06:04:30;204.40;;;18.00;;
2762;SDS011;1389;51.490;7.338;2023-06-26T06:06:56;204.27;;;18.10;;
2762;SDS011;1389;51.490;7.338;2023-06-26T06:09:23;227.43;;;21.80;;
2762;SDS011;1389;51.490;7.338;2023-06-26T06:11:50;255.25;;;28.50;;
2762;SDS011;1389;51.490;7.338;2023-06-26T06:14:16;274.27;;;34.73;;
2762;SDS011;1389;51.490;7.338;2023-06-26T06:16:42;288.35;;;36.65;;
2762;SDS011;1389;51.490;7.338;2023-06-26T06:19:09;277.02;;;32.88;;
2762;SDS011;1389;51.490;7.338;2023-06-26T06:21:38;289.05;;;41.00;;
2762;SDS011;1389;51.490;7.338;2023-06-26T06:24:04;1999.90;;;999.90;;
2762;SDS011;1389;51.490;7.338;2023-06-26T06:26:32;1999.90;;;999.90;;
2762;SDS011;1389;51.490;7.338;2023-06-26T06:28:59;1999.90;;;999.90;;
2762;SDS011;1389;51.490;7.338;2023-06-26T06:31:25;87.60;;;12.57;;
2762;SDS011;1389;51.490;7.338;2023-06-26T06:33:54;77.05;;;9.75;;
2762;SDS011;1389;51.490;7.338;2023-06-26T06:36:20;170.88;;;15.80;;
2762;SDS011;1389;51.490;7.338;2023-06-26T06:38:47;151.77;;;14.38;;
2762;SDS011;1389;51.490;7.338;2023-06-26T06:41:13;165.18;;;15.30;;
2762;SDS011;1389;51.490;7.338;2023-06-26T06:43:40;165.57;;;15.55;;
2762;SDS011;1389;51.490;7.338;2023-06-26T06:46:08;190.90;;;16.90;;
2762;SDS011;1389;51.490;7.338;2023-06-26T06:48:34;177.95;;;15.60;;
2762;SDS011;1389;51.490;7.338;2023-06-26T06:51:01;165.50;;;14.85;;
2762;SDS011;1389;51.490;7.338;2023-06-26T06:53:30;165.60;;;15.90;;
2762;SDS011;1389;51.490;7.338;2023-06-26T06:55:57;127.80;;;13.50;;
2762;SDS011;1389;51.490;7.338;2023-06-26T06:58:23;241.73;;;26.23;;
2762;SDS011;1389;51.490;7.338;2023-06-26T07:00:50;699.10;;;270.45;;
2762;SDS011;1389;51.490;7.338;2023-06-26T07:03:17;702.15;;;270.67;;
2762;SDS011;1389;51.490;7.338;2023-06-26T07:05:43;309.10;;;50.30;;
2762;SDS011;1389;51.490;7.338;2023-06-26T07:08:10;453.67;;;196.85;;
2762;SDS011;1389;51.490;7.338;2023-06-26T07:10:36;1999.90;;;999.90;;
2762;SDS011;1389;51.490;7.338;2023-06-26T07:13:02;1999.90;;;999.90;;
2762;SDS011;1389;51.490;7.338;2023-06-26T07:15:30;1999.90;;;999.90;;
2762;SDS011;1389;51.490;7.338;2023-06-26T07:17:57;372.85;;;176.75;;
2762;SDS011;1389;51.490;7.338;2023-06-26T07:20:23;279.73;;;49.83;;
2762;SDS011;1389;51.490;7.338;2023-06-26T07:22:50;266.10;;;40.22;;
2762;SDS011;1389;51.490;7.338;2023-06-26T07:25:16;204.90;;;21.30;;
2762;SDS011;1389;51.490;7.338;2023-06-26T07:27:43;215.98;;;22.60;;
2762;SDS011;1389;51.490;7.338;2023-06-26T07:30:10;245.27;;;32.10;;
2762;SDS011;1389;51.490;7.338;2023-06-26T07:32:36;342.85;;;93.53;;
2762;SDS011;1389;51.490;7.338;2023-06-26T07:35:03;310.35;;;61.28;;
2762;SDS011;1389;51.490;7.338;2023-06-26T07:37:30;301.77;;;75.20;;
2762;SDS011;1389;51.490;7.338;2023-06-26T07:39:56;312.40;;;58.33;;
2762;SDS011;1389;51.490;7.338;2023-06-26T07:42:23;311.17;;;62.10;;
2762;SDS011;1389;51.490;7.338;2023-06-26T07:44:49;399.80;;;156.35;;
2762;SDS011;1389;51.490;7.338;2023-06-26T07:47:15;283.38;;;42.25;;
2762;SDS011;1389;51.490;7.338;2023-06-26T07:49:42;255.52;;;29.92;;
2762;SDS011;1389;51.490;7.338;2023-06-26T07:52:08;242.05;;;31.27;;
2762;SDS011;1389;51.490;7.338;2023-06-26T07:54:37;232.90;;;21.70;;
2762;SDS011;1389;51.490;7.338;2023-06-26T07:57:04;227.40;;;21.13;;
2762;SDS011;1389;51.490;7.338;2023-06-26T07:59:37;228.35;;;21.23;;
2762;SDS011;1389;51.490;7.338;2023-06-26T08:02:03;226.60;;;21.00;;
2762;SDS011;1389;51.490;7.338;2023-06-26T08:04:29;228.90;;;21.70;;
2762;SDS011;1389;51.490;7.338;2023-06-26T08:06:59;208.38;;;19.70;;
2762;SDS011;1389;51.490;7.338;2023-06-26T08:09:27;206.50;;;18.25;;
2762;SDS011;1389;51.490;7.338;2023-06-26T08:11:53;206.00;;;18.40;;
2762;SDS011;1389;51.490;7.338;2023-06-26T08:14:20;205.70;;;18.40;;
2762;SDS011;1389;51.490;7.338;2023-06-26T08:16:46;205.30;;;18.50;;
2762;SDS011;1389;51.490;7.338;2023-06-26T08:19:13;205.80;;;20.45;;
2762;SDS011;1389;51.490;7.338;2023-06-26T08:21:40;202.35;;;18.15;;
2762;SDS011;1389;51.490;7.338;2023-06-26T08:24:06;201.00;;;17.80;;
2762;SDS011;1389;51.490;7.338;2023-06-26T08:26:33;187.15;;;16.50;;
2762;SDS011;1389;51.490;7.338;2023-06-26T08:29:00;188.98;;;17.10;;
2762;SDS011;1389;51.490;7.338;2023-06-26T08:31:26;195.48;;;18.63;;
2762;SDS011;1389;51.490;7.338;2023-06-26T08:33:52;168.20;;;14.77;;
2762;SDS011;1389;51.490;7.338;2023-06-26T08:36:19;196.60;;;18.95;;
2762;SDS011;1389;51.490;7.338;2023-06-26T08:38:45;167.02;;;17.90;;
2762;SDS011;1389;51.490;7.338;2023-06-26T08:41:11;179.52;;;15.77;;
2762;SDS011;1389;51.490;7.338;2023-06-26T08:43:38;172.63;;;14.90;;
2762;SDS011;1389;51.490;7.338;2023-06-26T08:46:04;168.68;;;14.40;;
2762;SDS011;1389;51.490;7.338;2023-06-26T08:48:34;152.05;;;13.35;;
2762;SDS011;1389;51.490;7.338;2023-06-26T08:51:05;137.15;;;12.00;;
2762;SDS011;1389;51.490;7.338;2023-06-26T08:56:20;137.17;;;12.10;;
2762;SDS011;1389;51.490;7.338;2023-06-26T08:58:48;131.20;;;11.63;;
2762;SDS011;1389;51.490;7.338;2023-06-26T09:01:15;129.60;;;11.50;;
2762;SDS011;1389;51.490;7.338;2023-06-26T09:03:42;216.40;;;26.67;;
2762;SDS011;1389;51.490;7.338;2023-06-26T09:06:09;338.85;;;126.72;;
2762;SDS011;1389;51.490;7.338;2023-06-26T09:08:35;250.23;;;71.25;;
2762;SDS011;1389;51.490;7.338;2023-06-26T09:11:02;157.15;;;15.68;;
2762;SDS011;1389;51.490;7.338;2023-06-26T09:13:28;199.00;;;22.05;;
2762;SDS011;1389;51.490;7.338;2023-06-26T09:15:55;163.52;;;15.55;;
2762;SDS011;1389;51.490;7.338;2023-06-26T09:18:21;158.80;;;13.70;;
2762;SDS011;1389;51.490;7.338;2023-06-26T09:20:48;160.05;;;13.80;;
2762;SDS011;1389;51.490;7.338;2023-06-26T09:23:14;162.27;;;13.77;;
2762;SDS011;1389;51.490;7.338;2023-06-26T09:25:43;179.93;;;15.80;;
2762;SDS011;1389;51.490;7.338;2023-06-26T09:28:13;179.10;;;15.70;;
2762;SDS011;1389;51.490;7.338;2023-06-26T09:30:40;185.85;;;18.52;;
2762;SDS011;1389;51.490;7.338;2023-06-26T09:33:19;174.73;;;15.02;;
2762;SDS011;1389;51.490;7.338;2023-06-26T09:35:46;171.00;;;14.30;;
2762;SDS011;1389;51.490;7.338;2023-06-26T09:38:13;168.32;;;14.20;;
2762;SDS011;1389;51.490;7.338;2023-06-26T09:40:43;166.77;;;13.82;;
2762;SDS011;1389;51.490;7.338;2023-06-26T09:43:12;165.70;;;13.93;;
2762;SDS011;1389;51.490;7.338;2023-06-26T09:45:39;164.80;;;13.53;;
2762;SDS011;1389;51.490;7.338;2023-06-26T09:48:06;163.70;;;13.80;;
2762;SDS011;1389;51.490;7.338;2023-06-26T09:50:34;162.60;;;13.40;;
2762;SDS011;1389;51.490;7.338;2023-06-26T09:53:08;164.20;;;13.60;;
2762;SDS011;1389;51.490;7.338;2023-06-26T09:55:35;168.70;;;14.02;;
2762;SDS011;1389;51.490;7.338;2023-06-26T09:58:06;167.43;;;14.00;;
2762;SDS011;1389;51.490;7.338;2023-06-26T10:00:32;169.30;;;13.90;;
2762;SDS011;1389;51.490;7.338;2023-06-26T10:02:59;168.00;;;13.80;;
2762;SDS011;1389;51.490;7.338;2023-06-26T10:05:26;166.00;;;13.40;;
2762;SDS011;1389;51.490;7.338;2023-06-26T10:07:54;165.70;;;13.80;;
2762;SDS011;1389;51.490;7.338;2023-06-26T10:10:22;263.80;;;72.43;;
2762;SDS011;1389;51.490;7.338;2023-06-26T10:12:51;140.27;;;11.80;;
2762;SDS011;1389;51.490;7.338;2023-06-26T10:15:20;133.88;;;11.65;;
2762;SDS011;1389;51.490;7.338;2023-06-26T10:17:47;84.03;;;8.68;;
2762;SDS011;1389;51.490;7.338;2023-06-26T10:20:14;75.60;;;8.30;;
2762;SDS011;1389;51.490;7.338;2023-06-26T10:22:42;69.95;;;7.50;;
2762;SDS011;1389;51.490;7.338;2023-06-26T10:25:10;72.90;;;7.10;;
2762;SDS011;1389;51.490;7.338;2023-06-26T10:27:40;71.50;;;6.75;;
2762;SDS011;1389;51.490;7.338;2023-06-26T10:30:09;71.50;;;6.40;;
2762;SDS011;1389;51.490;7.338;2023-06-26T10:32:37;71.50;;;6.50;;
2762;SDS011;1389;51.490;7.338;2023-06-26T10:35:05;72.00;;;6.20;;
2762;SDS011;1389;51.490;7.338;2023-06-26T10:37:44;72.50;;;6.20;;
2762;SDS011;1389;51.490;7.338;2023-06-26T10:40:12;72.40;;;6.30;;
2762;SDS011;1389;51.490;7.338;2023-06-26T10:42:48;72.60;;;6.20;;
2762;SDS011;1389;51.490;7.338;2023-06-26T10:45:15;72.32;;;6.25;;
2762;SDS011;1389;51.490;7.338;2023-06-26T10:47:45;73.00;;;6.00;;
2762;SDS011;1389;51.490;7.338;2023-06-26T10:50:24;75.60;;;5.70;;
2762;SDS011;1389;51.490;7.338;2023-06-26T10:53:08;76.60;;;5.30;;
2762;SDS011;1389;51.490;7.338;2023-06-26T10:55:35;76.10;;;5.30;;
2762;SDS011;1389;51.490;7.338;2023-06-26T10:58:01;76.50;;;5.30;;
2762;SDS011;1389;51.490;7.338;2023-06-26T11:00:28;75.47;;;4.80;;
2762;SDS011;1389;51.490;7.338;2023-06-26T11:02:54;74.90;;;5.60;;
2762;SDS011;1389;51.490;7.338;2023-06-26T11:05:24;74.60;;;5.80;;
2762;SDS011;1389;51.490;7.338;2023-06-26T11:10:48;74.30;;;5.70;;
2762;SDS011;1389;51.490;7.338;2023-06-26T11:13:16;74.22;;;5.70;;
2762;SDS011;1389;51.490;7.338;2023-06-26T11:15:42;74.70;;;6.30;;
2762;SDS011;1389;51.490;7.338;2023-06-26T11:18:12;75.40;;;5.40;;
2762;SDS011;1389;51.490;7.338;2023-06-26T11:20:40;76.80;;;5.50;;
2762;SDS011;1389;51.490;7.338;2023-06-26T11:23:10;78.10;;;5.40;;
2762;SDS011;1389;51.490;7.338;2023-06-26T11:25:37;78.80;;;5.00;;
2762;SDS011;1389;51.490;7.338;2023-06-26T11:28:04;78.80;;;4.80;;
2762;SDS011;1389;51.490;7.338;2023-06-26T11:30:31;78.90;;;5.00;;
2762;SDS011;1389;51.490;7.338;2023-06-26T11:33:04;78.05;;;5.00;;
2762;SDS011;1389;51.490;7.338;2023-06-26T11:35:31;77.20;;;4.70;;
2762;SDS011;1389;51.490;7.338;2023-06-26T11:37:58;77.00;;;5.10;;
2762;SDS011;1389;51.490;7.338;2023-06-26T11:40:26;76.20;;;5.45;;
2762;SDS011;1389;51.490;7.338;2023-06-26T11:42:53;75.60;;;5.90;;
2762;SDS011;1389;51.490;7.338;2023-06-26T11:45:19;74.90;;;5.80;;
2762;SDS011;1389;51.490;7.338;2023-06-26T11:47:46;50.83;;;4.90;;
2762;SDS011;1389;51.490;7.338;2023-06-26T11:50:15;34.65;;;3.90;;
2762;SDS011;1389;51.490;7.338;2023-06-26T11:52:45;46.20;;;4.78;;
2762;SDS011;1389;51.490;7.338;2023-06-26T11:55:11;78.28;;;6.60;;
2762;SDS011;1389;51.490;7.338;2023-06-26T11:57:38;71.90;;;6.10;;
2762;SDS011;1389;51.490;7.338;2023-06-26T12:00:11;72.55;;;5.70;;
2762;SDS011;1389;51.490;7.338;2023-06-26T12:02:37;73.20;;;5.43;;
2762;SDS011;1389;51.490;7.338;2023-06-26T12:05:04;74.50;;;5.40;;
2762;SDS011;1389;51.490;7.338;2023-06-26T12:07:31;75.30;;;5.30;;
2762;SDS011;1389;51.490;7.338;2023-06-26T12:09:57;76.20;;;5.25;;
2762;SDS011;1389;51.490;7.338;2023-06-26T12:12:23;77.45;;;5.00;;
2762;SDS011;1389;51.490;7.338;2023-06-26T12:14:51;80.93;;;5.60;;
2762;SDS011;1389;51.490;7.338;2023-06-26T12:17:17;80.47;;;5.20;;
2762;SDS011;1389;51.490;7.338;2023-06-26T12:19:48;83.50;;;5.60;;
2762;SDS011;1389;51.490;7.338;2023-06-26T12:22:15;82.90;;;5.85;;
2762;SDS011;1389;51.490;7.338;2023-06-26T12:24:42;82.85;;;5.72;;
2762;SDS011;1389;51.490;7.338;2023-06-26T12:27:09;83.10;;;5.60;;
2762;SDS011;1389;51.490;7.338;2023-06-26T12:29:37;83.63;;;5.68;;
2762;SDS011;1389;51.490;7.338;2023-06-26T12:32:03;84.00;;;5.80;;
2762;SDS011;1389;51.490;7.338;2023-06-26T12:34:31;83.90;;;5.60;;
2762;SDS011;1389;51.490;7.338;2023-06-26T12:37:03;83.80;;;5.60;;
2762;SDS011;1389;51.490;7.338;2023-06-26T12:39:29;83.85;;;5.45;;
2762;SDS011;1389;51.490;7.338;2023-06-26T12:42:02;84.40;;;5.65;;
2762;SDS011;1389;51.490;7.338;2023-06-26T12:44:29;84.50;;;5.50;;
2762;SDS011;1389;51.490;7.338;2023-06-26T12:46:59;84.30;;;5.40;;
2762;SDS011;1389;51.490;7.338;2023-06-26T12:49:38;82.60;;;5.80;;
2762;SDS011;1389;51.490;7.338;2023-06-26T12:52:05;85.30;;;5.65;;
2762;SDS011;1389;51.490;7.338;2023-06-26T12:54:35;86.20;;;6.13;;
2762;SDS011;1389;51.490;7.338;2023-06-26T12:57:02;85.90;;;5.30;;
2762;SDS011;1389;51.490;7.338;2023-06-26T12:59:38;86.60;;;5.90;;
2762;SDS011;1389;51.490;7.338;2023-06-26T13:02:04;94.90;;;6.50;;
2762;SDS011;1389;51.490;7.338;2023-06-26T13:04:31;98.35;;;6.55;;
2762;SDS011;1389;51.490;7.338;2023-06-26T13:06:58;70.50;;;6.20;;
2762;SDS011;1389;51.490;7.338;2023-06-26T13:09:24;72.88;;;6.30;;
2762;SDS011;1389;51.490;7.338;2023-06-26T13:11:51;66.43;;;6.60;;
2762;SDS011;1389;51.490;7.338;2023-06-26T13:14:18;104.30;;;6.70;;
2762;SDS011;1389;51.490;7.338;2023-06-26T13:16:44;109.90;;;6.50;;
2762;SDS011;1389;51.490;7.338;2023-06-26T13:19:10;110.30;;;6.60;;
2762;SDS011;1389;51.490;7.338;2023-06-26T13:21:37;110.40;;;6.53;;
2762;SDS011;1389;51.490;7.338;2023-06-26T13:24:04;107.28;;;6.30;;
2762;SDS011;1389;51.490;7.338;2023-06-26T13:26:30;106.10;;;6.22;;
2762;SDS011;1389;51.490;7.338;2023-06-26T13:28:57;106.20;;;6.20;;
2762;SDS011;1389;51.490;7.338;2023-06-26T13:31:24;106.20;;;6.10;;
2762;SDS011;1389;51.490;7.338;2023-06-26T13:33:50;107.30;;;6.60;;
2762;SDS011;1389;51.490;7.338;2023-06-26T13:36:20;107.70;;;6.50;;
2762;SDS011;1389;51.490;7.338;2023-06-26T13:38:46;108.63;;;6.35;;
2762;SDS011;1389;51.490;7.338;2023-06-26T13:41:15;105.03;;;6.25;;
2762;SDS011;1389;51.490;7.338;2023-06-26T13:43:42;105.90;;;6.40;;
2762;SDS011;1389;51.490;7.338;2023-06-26T13:46:08;108.43;;;6.20;;
2762;SDS011;1389;51.490;7.338;2023-06-26T13:48:34;108.57;;;6.80;;
2762;SDS011;1389;51.490;7.338;2023-06-26T13:51:01;108.72;;;6.70;;
2762;SDS011;1389;51.490;7.338;2023-06-26T13:53:27;107.78;;;5.80;;
2762;SDS011;1389;51.490;7.338;2023-06-26T13:55:53;108.47;;;6.40;;
2762;SDS011;1389;51.490;7.338;2023-06-26T13:58:20;108.68;;;6.30;;
2762;SDS011;1389;51.490;7.338;2023-06-26T14:00:48;108.90;;;6.20;;
2762;SDS011;1389;51.490;7.338;2023-06-26T14:03:14;109.22;;;6.30;;
2762;SDS011;1389;51.490;7.338;2023-06-26T14:05:40;109.47;;;6.50;;
2762;SDS011;1389;51.490;7.338;2023-06-26T14:08:07;109.45;;;6.45;;
2762;SDS011;1389;51.490;7.338;2023-06-26T14:10:34;109.30;;;6.30;;
2762;SDS011;1389;51.490;7.338;2023-06-26T14:13:01;109.30;;;6.10;;
2762;SDS011;1389;51.490;7.338;2023-06-26T14:15:28;109.57;;;6.30;;
2762;SDS011;1389;51.490;7.338;2023-06-26T14:17:55;109.60;;;6.60;;
2762;SDS011;1389;51.490;7.338;2023-06-26T14:20:21;109.20;;;6.53;;
2762;SDS011;1389;51.490;7.338;2023-06-26T14:22:55;110.00;;;6.50;;
2762;SDS011;1389;51.490;7.338;2023-06-26T14:25:21;109.80;;;6.80;;
2762;SDS011;1389;51.490;7.338;2023-06-26T14:27:47;112.63;;;6.80;;
2762;SDS011;1389;51.490;7.338;2023-06-26T14:30:14;109.70;;;6.57;;
2762;SDS011;1389;51.490;7.338;2023-06-26T14:32:40;109.38;;;6.00;;
2762;SDS011;1389;51.490;7.338;2023-06-26T14:35:07;109.95;;;6.40;;
2762;SDS011;1389;51.490;7.338;2023-06-26T14:37:35;110.70;;;6.57;;
2762;SDS011;1389;51.490;7.338;2023-06-26T14:40:05;136.20;;;9.18;;
2762;SDS011;1389;51.490;7.338;2023-06-26T14:42:32;146.43;;;11.90;;
2762;SDS011;1389;51.490;7.338;2023-06-26T14:44:59;144.02;;;8.10;;
2762;SDS011;1389;51.490;7.338;2023-06-26T14:47:25;142.93;;;8.10;;
2762;SDS011;1389;51.490;7.338;2023-06-26T14:49:51;142.30;;;8.65;;
2762;SDS011;1389;51.490;7.338;2023-06-26T14:52:18;141.68;;;8.10;;